9°C Temp
7°C Dewpoint
87% Humidity
Temperature
2 KM/H
1 MPH
1 KTS
280°
Due West

Wind Speed
Partly Cloudy
Conditions
Pressure 1013.92 (hPa) - 29.94 (in)
Visibility 6.2 (mi) - 10.0 (km)

Current Conditions
LGAV
Location 35(km)
Metar :LGAV 090320Z 28001KT 9999 FEW020 SCT060 09/07 Q1014 NOSIG
Tue 9th March 05:20 am

Airport
  Metar Aviation API Data Provided by https://www.checkwx.com/ PHP scripts by weather34.com ©2021